Time;durP1;ratioP1;P1;durP2;ratioP2;P2;SDS_P1;SDS_P2;PMS_P1;PMS_P2;Temp;Humidity;BMP_temperature;BMP_pressure;BME280_temperature;BME280_humidity;BME280_pressure;Samples;Min_cycle;Max_cycle;Signal;HPM_P1;HPM_P2
2024/04/23 00:01:10;;;;;;;9.50;7.25;;;2.60;1.00;;;;;;7373320;19;20015;-62
2024/04/23 00:03:37;;;;;;;9.00;7.03;;;2.60;1.00;;;;;;7368069;19;20945;-62
2024/04/23 00:06:03;;;;;;;8.48;6.60;;;2.60;1.00;;;;;;7369073;19;20618;-61
2024/04/23 00:08:29;;;;;;;10.48;6.85;;;2.50;1.00;;;;;;7365933;19;20030;-61
2024/04/23 00:10:56;;;;;;;10.45;7.93;;;2.60;1.00;;;;;;7366513;19;20014;-62
2024/04/23 00:13:22;;;;;;;13.23;7.90;;;2.60;1.00;;;;;;7367493;19;20014;-62
2024/04/23 00:15:48;;;;;;;8.30;6.85;;;2.60;1.00;;;;;;7364623;19;20725;-62
2024/04/23 00:18:14;;;;;;;9.50;7.40;;;2.50;1.00;;;;;;7374685;19;20018;-62
2024/04/23 00:20:41;;;;;;;9.48;7.10;;;2.50;9.30;;;;;;7375215;19;20037;-61
2024/04/23 00:23:07;;;;;;;9.77;7.20;;;2.50;74.20;;;;;;7365139;19;20051;-62
2024/04/23 00:25:40;;;;;;;10.95;7.10;;;2.40;72.20;;;;;;7378086;19;20019;-62
2024/04/23 00:28:07;;;;;;;9.73;7.47;;;2.40;49.10;;;;;;7372022;19;20044;-62
2024/04/23 00:30:33;;;;;;;8.77;7.18;;;2.40;99.90;;;;;;7372155;19;20030;-61
2024/04/23 00:32:59;;;;;;;9.45;7.28;;;2.40;99.90;;;;;;7373441;19;20014;-62
2024/04/23 00:35:25;;;;;;;9.45;6.63;;;2.30;92.60;;;;;;7368299;19;20018;-62
2024/04/23 00:37:51;;;;;;;8.77;7.20;;;2.30;75.30;;;;;;7372626;19;20577;-61
2024/04/23 00:40:17;;;;;;;11.65;7.88;;;2.30;61.50;;;;;;7371349;19;20048;-62
2024/04/23 00:42:44;;;;;;;9.57;7.22;;;2.30;81.80;;;;;;7371518;19;20022;-62
2024/04/23 00:45:15;;;;;;;9.85;7.47;;;2.30;96.20;;;;;;7373306;19;20019;-62
2024/04/23 00:47:42;;;;;;;10.65;7.85;;;2.30;99.90;;;;;;7366849;19;20082;-62
2024/04/23 00:50:09;;;;;;;9.40;7.00;;;2.20;99.90;;;;;;7373143;19;20945;-62
2024/04/23 00:52:35;;;;;;;10.95;7.30;;;2.20;99.90;;;;;;7364762;19;20097;-62
2024/04/23 00:55:02;;;;;;;11.70;7.70;;;2.20;99.90;;;;;;7375230;19;20030;-62
2024/04/23 00:57:29;;;;;;;11.02;7.88;;;2.20;99.90;;;;;;7369318;19;20126;-62
2024/04/23 00:59:55;;;;;;;10.93;7.65;;;2.20;99.90;;;;;;7373561;19;20022;-62
2024/04/23 01:02:22;;;;;;;10.27;7.78;;;2.20;99.90;;;;;;7368113;19;20519;-62
2024/04/23 01:04:48;;;;;;;10.90;7.20;;;2.10;99.90;;;;;;7372852;19;20739;-62
2024/04/23 01:07:14;;;;;;;10.77;7.35;;;2.20;99.90;;;;;;7371131;19;20479;-61
2024/04/23 01:09:40;;;;;;;12.10;8.23;;;2.20;99.90;;;;;;7376169;19;20019;-61
2024/04/23 01:12:07;;;;;;;10.75;8.77;;;2.10;99.90;;;;;;7371898;19;20029;-61
2024/04/23 01:14:35;;;;;;;10.43;8.32;;;2.10;99.90;;;;;;7371694;19;20018;-61
2024/04/23 01:17:03;;;;;;;11.73;7.90;;;2.10;99.90;;;;;;7374004;19;20098;-60
2024/04/23 01:19:35;;;;;;;11.18;7.85;;;2.00;99.90;;;;;;7371104;19;20014;-60
2024/04/23 01:22:11;;;;;;;11.05;8.45;;;2.00;99.90;;;;;;7369951;19;20584;-61
2024/04/23 01:24:50;;;;;;;9.55;7.60;;;2.00;99.90;;;;;;7371871;19;20022;-60
2024/04/23 01:27:36;;;;;;;10.18;7.80;;;2.00;99.90;;;;;;7371815;19;20022;-61
2024/04/23 01:30:05;;;;;;;8.73;7.60;;;2.00;99.90;;;;;;7374232;19;20018;-61
2024/04/23 01:32:35;;;;;;;11.80;8.40;;;1.90;99.90;;;;;;7372414;19;20094;-61
2024/04/23 01:35:24;;;;;;;10.85;8.32;;;2.00;99.90;;;;;;7372939;19;20728;-61
2024/04/23 01:37:52;;;;;;;10.88;8.10;;;1.90;99.90;;;;;;7370106;19;20069;-61
2024/04/23 01:40:19;;;;;;;11.52;8.43;;;2.00;99.90;;;;;;7370517;19;20761;-61
2024/04/23 01:42:47;;;;;;;10.98;8.00;;;1.90;99.90;;;;;;7370383;19;20022;-61
2024/04/23 01:45:15;;;;;;;11.13;7.75;;;1.90;99.90;;;;;;7375207;19;20196;-61
2024/04/23 01:47:46;;;;;;;12.13;8.13;;;1.80;99.90;;;;;;7365887;19;20768;-61
2024/04/23 01:50:15;;;;;;;12.40;8.43;;;1.80;99.90;;;;;;7371911;19;20466;-61
2024/04/23 01:52:42;;;;;;;11.27;8.68;;;1.80;99.90;;;;;;7372555;19;20035;-61
2024/04/23 01:55:09;;;;;;;10.13;8.07;;;1.80;99.90;;;;;;7372643;19;20026;-60
2024/04/23 01:57:36;;;;;;;10.68;8.70;;;1.80;99.90;;;;;;7364801;19;20023;-61
2024/04/23 02:00:10;;;;;;;11.95;8.57;;;1.70;99.90;;;;;;7373496;19;20033;-61
2024/04/23 02:02:38;;;;;;;11.38;9.18;;;1.70;99.90;;;;;;7366754;19;20765;-61
2024/04/23 02:05:08;;;;;;;11.13;8.73;;;1.70;99.90;;;;;;7376576;19;20019;-61
2024/04/23 02:07:35;;;;;;;11.25;8.45;;;1.70;99.90;;;;;;7370561;19;20015;-61
2024/04/23 02:10:05;;;;;;;12.60;8.60;;;1.60;99.90;;;;;;7370823;19;20562;-61
2024/04/23 02:12:31;;;;;;;12.07;8.65;;;1.60;99.90;;;;;;7371156;19;20138;-61
2024/04/23 02:14:57;;;;;;;12.40;8.55;;;1.60;99.90;;;;;;7367902;19;20023;-61
2024/04/23 02:17:43;;;;;;;11.05;8.43;;;1.60;99.90;;;;;;7369094;19;20058;-61
2024/04/23 02:20:10;;;;;;;11.77;9.35;;;1.50;99.90;;;;;;7371246;19;20040;-60
2024/04/23 02:22:37;;;;;;;12.00;8.13;;;1.50;99.90;;;;;;7360878;19;20026;-61
2024/04/23 02:25:04;;;;;;;12.00;8.55;;;1.50;99.90;;;;;;7373507;19;20356;-61
2024/04/23 02:27:31;;;;;;;12.15;8.95;;;1.50;99.90;;;;;;7369817;19;20018;-61
2024/04/23 02:30:00;;;;;;;10.93;9.00;;;1.50;99.90;;;;;;7368027;19;20055;-61
2024/04/23 02:32:27;;;;;;;12.10;7.93;;;1.40;99.90;;;;;;7369815;19;20023;-60
2024/04/23 02:34:53;;;;;;;11.05;8.73;;;1.40;99.90;;;;;;7371276;19;20865;-61
2024/04/23 02:37:19;;;;;;;12.00;9.13;;;1.40;99.90;;;;;;7371236;19;20038;-61
2024/04/23 02:39:46;;;;;;;10.45;8.32;;;1.40;99.90;;;;;;7367765;19;20016;-60
2024/04/23 02:42:14;;;;;;;10.18;8.00;;;1.30;99.90;;;;;;7369869;19;20022;-60
2024/04/23 02:44:40;;;;;;;11.88;8.73;;;1.30;99.90;;;;;;7369780;19;20019;-61
2024/04/23 02:47:06;;;;;;;12.48;9.65;;;1.30;99.90;;;;;;7371158;19;20014;-60
2024/04/23 02:49:32;;;;;;;14.40;9.25;;;1.30;99.90;;;;;;7369472;19;20019;-61
2024/04/23 02:52:18;;;;;;;12.18;8.52;;;1.30;99.90;;;;;;7370005;19;20023;-61
2024/04/23 02:54:45;;;;;;;10.85;8.98;;;1.20;99.90;;;;;;7369449;19;20045;-61
2024/04/23 02:57:11;;;;;;;12.80;9.18;;;1.20;99.90;;;;;;7369032;19;20085;-61
2024/04/23 02:59:37;;;;;;;15.02;8.93;;;1.20;99.90;;;;;;7367151;19;20035;-61
2024/04/23 03:02:05;;;;;;;11.27;9.13;;;1.10;99.90;;;;;;7366892;19;20022;-61
2024/04/23 03:04:32;;;;;;;12.82;10.60;;;1.20;1.00;;;;;;7373157;19;20031;-61
2024/04/23 03:06:59;;;;;;;13.55;9.30;;;1.20;1.00;;;;;;7367375;19;20048;-61
2024/04/23 03:09:45;;;;;;;13.80;9.35;;;1.20;1.00;;;;;;7365564;19;20022;-61
2024/04/23 03:12:11;;;;;;;11.15;8.73;;;1.20;1.00;;;;;;7368463;19;20046;-61
2024/04/23 03:14:37;;;;;;;11.85;9.32;;;1.20;1.00;;;;;;7366961;19;20019;-61
2024/04/23 03:17:03;;;;;;;13.05;9.73;;;1.10;1.00;;;;;;7365804;19;20014;-61
2024/04/23 03:19:49;;;;;;;11.90;9.32;;;1.10;1.00;;;;;;7365184;19;20041;-61
2024/04/23 03:22:15;;;;;;;12.15;9.30;;;1.00;1.00;;;;;;7368094;19;20019;-61
2024/04/23 03:24:42;;;;;;;11.13;8.82;;;1.00;1.00;;;;;;7366704;19;20022;-61
2024/04/23 03:27:08;;;;;;;9.48;8.13;;;1.10;1.00;;;;;;7369732;19;21653;-61
2024/04/23 03:29:34;;;;;;;13.38;8.63;;;1.00;1.00;;;;;;7368030;19;20022;-61
2024/04/23 03:32:03;;;;;;;12.30;9.55;;;0.90;99.90;;;;;;7371891;19;20059;-61
2024/04/23 03:34:45;;;;;;;12.93;8.55;;;0.90;1.00;;;;;;7365900;19;20064;-61
2024/04/23 03:37:11;;;;;;;12.02;8.30;;;0.90;1.00;;;;;;7366454;19;20047;-61
2024/04/23 03:39:57;;;;;;;12.43;9.90;;;0.90;1.00;;;;;;7366484;19;20034;-61
2024/04/23 03:42:24;;;;;;;11.55;8.70;;;0.90;1.00;;;;;;7367722;19;21885;-61
2024/04/23 03:44:50;;;;;;;12.32;9.65;;;0.80;1.00;;;;;;7368847;19;20015;-61
2024/04/23 03:47:16;;;;;;;11.02;8.48;;;0.70;1.00;;;;;;7364769;19;20034;-61
2024/04/23 03:50:02;;;;;;;12.88;9.38;;;0.70;1.00;;;;;;7364970;19;20058;-61
2024/04/23 03:52:30;;;;;;;11.55;9.10;;;0.70;1.00;;;;;;7372535;19;20050;-61
2024/04/23 03:55:01;;;;;;;12.25;10.38;;;0.70;1.00;;;;;;7374282;19;20019;-61
2024/04/23 03:57:27;;;;;;;13.13;9.65;;;0.70;1.00;;;;;;7379120;19;20018;-61
2024/04/23 04:00:14;;;;;;;12.05;10.23;;;0.60;1.00;;;;;;7372535;19;20474;-61
2024/04/23 04:08:21;;;;;;;13.65;9.32;;;0.60;1.00;;;;;;7374047;19;20018;-61
2024/04/23 04:11:08;;;;;;;12.32;9.68;;;0.60;1.00;;;;;;7372338;19;20022;-61
2024/04/23 04:13:39;;;;;;;11.98;9.18;;;0.60;1.00;;;;;;7377451;19;20638;-61
2024/04/23 04:16:07;;;;;;;11.73;9.13;;;0.50;1.00;;;;;;7375512;19;20015;-61
2024/04/23 04:18:54;;;;;;;12.52;9.25;;;0.50;1.00;;;;;;7372698;19;20271;-61
2024/04/23 04:21:20;;;;;;;12.88;9.40;;;0.50;1.00;;;;;;7377318;19;20078;-63
2024/04/23 04:23:46;;;;;;;14.15;9.93;;;0.50;1.00;;;;;;7375266;19;20487;-63
2024/04/23 04:26:14;;;;;;;16.13;10.32;;;0.50;1.00;;;;;;7378168;19;20384;-63
2024/04/23 04:28:41;;;;;;;14.20;10.30;;;0.50;1.00;;;;;;7376914;19;20018;-63
2024/04/23 04:31:07;;;;;;;12.48;10.20;;;0.50;1.00;;;;;;7373709;19;20384;-63
2024/04/23 04:33:34;;;;;;;12.50;9.88;;;0.50;1.00;;;;;;7380557;19;20017;-64
2024/04/23 04:36:02;;;;;;;13.93;10.10;;;0.50;1.00;;;;;;7376828;19;20102;-63
2024/04/23 04:38:28;;;;;;;13.05;10.30;;;0.50;1.00;;;;;;7379345;19;20834;-63
2024/04/23 04:40:54;;;;;;;12.85;10.70;;;0.50;1.00;;;;;;7378591;19;20034;-62
2024/04/23 04:43:20;;;;;;;12.70;9.63;;;0.50;1.00;;;;;;7379363;19;20126;-63
2024/04/23 04:45:47;;;;;;;14.90;11.00;;;0.50;1.00;;;;;;7377399;19;20015;-64
2024/04/23 04:48:13;;;;;;;12.38;9.38;;;0.50;1.00;;;;;;7380788;19;20053;-62
2024/04/23 04:50:39;;;;;;;13.88;10.02;;;0.60;1.00;;;;;;7377326;19;20052;-62
2024/04/23 04:53:06;;;;;;;12.95;9.30;;;0.50;1.00;;;;;;7379803;19;20018;-62
2024/04/23 04:55:32;;;;;;;12.70;10.07;;;0.60;1.00;;;;;;7376507;19;20622;-63
2024/04/23 04:57:58;;;;;;;13.40;10.73;;;0.60;1.00;;;;;;7380697;19;20117;-62
2024/04/23 05:00:25;;;;;;;15.02;9.73;;;0.60;1.00;;;;;;7375530;19;20020;-64
2024/04/23 05:02:51;;;;;;;15.35;10.73;;;0.60;1.00;;;;;;7373974;19;20018;-62
2024/04/23 05:05:17;;;;;;;14.93;11.40;;;0.60;1.00;;;;;;7377687;19;20022;-63
2024/04/23 05:07:43;;;;;;;17.42;12.10;;;0.70;1.00;;;;;;7377715;19;20113;-62
2024/04/23 05:10:09;;;;;;;14.70;10.20;;;0.80;1.00;;;;;;7376862;19;20014;-62
2024/04/23 05:12:36;;;;;;;14.88;11.43;;;0.80;1.00;;;;;;7377562;19;20021;-62
2024/04/23 05:15:04;;;;;;;14.52;11.10;;;0.80;1.00;;;;;;7374348;19;20084;-62
2024/04/23 05:17:30;;;;;;;13.63;10.93;;;0.90;1.00;;;;;;7376574;19;20034;-62
2024/04/23 05:19:57;;;;;;;15.15;11.57;;;1.00;1.00;;;;;;7375679;19;20116;-62
2024/04/23 05:22:23;;;;;;;18.10;11.15;;;1.10;1.00;;;;;;7378567;19;20403;-62
2024/04/23 05:24:49;;;;;;;12.38;10.30;;;1.20;1.00;;;;;;7374539;19;20022;-62
2024/04/23 05:27:15;;;;;;;16.45;10.35;;;1.30;1.00;;;;;;7380424;19;20082;-62
2024/04/23 05:29:43;;;;;;;15.05;10.45;;;1.50;1.00;;;;;;7374695;19;20455;-62
2024/04/23 05:34:57;;;;;;;12.23;8.85;;;1.90;1.00;;;;;;7378981;19;20026;-63
2024/04/23 05:37:24;;;;;;;10.18;8.60;;;2.00;1.00;;;;;;7379363;19;20031;-61
2024/04/23 05:39:50;;;;;;;10.68;8.95;;;2.20;1.00;;;;;;7377210;19;20021;-63
2024/04/23 05:42:18;;;;;;;11.00;8.68;;;2.30;1.00;;;;;;7376677;19;20625;-63
2024/04/23 05:44:44;;;;;;;10.77;9.15;;;2.40;1.00;;;;;;7377852;19;20022;-63
2024/04/23 05:47:10;;;;;;;10.43;8.80;;;2.60;1.00;;;;;;7379216;19;20014;-63
2024/04/23 05:50:13;;;;;;;11.18;8.55;;;2.80;1.00;;;;;;7376749;19;20628;-64
2024/04/23 05:53:36;;;;;;;10.55;8.82;;;3.00;1.00;;;;;;7378508;19;20520;-63
2024/04/23 05:56:21;;;;;;;12.02;8.93;;;3.20;1.00;;;;;;7377331;19;20019;-63
2024/04/23 05:58:47;;;;;;;12.70;11.40;;;3.50;1.00;;;;;;7378719;19;20778;-60
2024/04/23 06:01:14;;;;;;;10.77;9.02;;;3.70;1.00;;;;;;7377392;19;20018;-60
2024/04/23 06:03:40;;;;;;;10.20;8.73;;;3.80;1.00;;;;;;7374439;19;20396;-60
2024/04/23 06:06:06;;;;;;;10.02;8.35;;;4.00;1.00;;;;;;7379442;19;20764;-60
2024/04/23 06:08:32;;;;;;;11.52;8.75;;;4.30;99.90;;;;;;7379179;19;20364;-62
2024/04/23 06:10:59;;;;;;;9.43;8.43;;;4.40;1.00;;;;;;7375765;19;20503;-62
2024/04/23 06:13:25;;;;;;;12.60;8.63;;;4.60;1.00;;;;;;7380339;19;20019;-62
2024/04/23 06:15:51;;;;;;;10.07;8.57;;;4.80;1.00;;;;;;7375071;19;20014;-63
2024/04/23 06:18:22;;;;;;;9.13;7.97;;;5.00;1.00;;;;;;7378428;19;20131;-63
2024/04/23 06:20:52;;;;;;;9.00;7.70;;;5.20;99.90;;;;;;7374512;19;20021;-63
2024/04/23 06:23:19;;;;;;;9.25;8.25;;;5.20;99.90;;;;;;7375881;19;20761;-61
2024/04/23 06:25:46;;;;;;;10.77;8.52;;;5.40;99.90;;;;;;7375138;19;20479;-63
2024/04/23 06:28:12;;;;;;;10.77;7.95;;;5.60;96.20;;;;;;7377452;19;20019;-64
2024/04/23 06:30:38;;;;;;;10.32;8.30;;;5.80;99.90;;;;;;7378093;19;20037;-63
2024/04/23 06:33:05;;;;;;;9.63;8.63;;;5.90;33.40;;;;;;7373843;19;20019;-63
2024/04/23 06:35:31;;;;;;;9.82;8.25;;;6.10;1.00;;;;;;7378070;19;20018;-61
2024/04/23 06:37:58;;;;;;;8.65;7.68;;;6.30;1.00;;;;;;7376010;19;20695;-61
2024/04/23 06:40:24;;;;;;;8.80;7.78;;;6.50;1.00;;;;;;7375242;19;20046;-61
2024/04/23 06:42:50;;;;;;;10.57;7.97;;;6.60;1.00;;;;;;7372172;19;20031;-61
2024/04/23 06:45:16;;;;;;;8.68;7.20;;;6.80;1.00;;;;;;7376541;19;20423;-61
2024/04/23 06:47:43;;;;;;;8.88;7.95;;;6.90;99.90;;;;;;7376310;19;20077;-61
2024/04/23 06:50:09;;;;;;;9.63;8.07;;;7.00;99.90;;;;;;7375535;19;20032;-64
2024/04/23 06:52:35;;;;;;;9.80;8.25;;;7.20;99.90;;;;;;7375595;19;20014;-64
2024/04/23 06:55:02;;;;;;;10.57;8.38;;;7.30;99.90;;;;;;7375664;19;20015;-64
2024/04/23 06:57:28;;;;;;;11.43;8.75;;;7.60;99.90;;;;;;7374417;19;20018;-64
2024/04/23 06:59:55;;;;;;;9.15;8.25;;;7.80;99.90;;;;;;7370606;19;20054;-64
2024/04/23 07:02:21;;;;;;;9.07;8.18;;;7.90;60.90;;;;;;7374110;19;20101;-64
2024/04/23 07:04:47;;;;;;;8.77;7.88;;;8.40;25.50;;;;;;7373555;19;20018;-64
2024/04/23 07:07:13;;;;;;;10.35;8.48;;;8.40;1.00;;;;;;7377178;19;20832;-63
2024/04/23 07:09:42;;;;;;;10.30;8.45;;;8.60;1.00;;;;;;7375623;19;20042;-61
2024/04/23 07:12:09;;;;;;;9.68;7.80;;;8.90;1.00;;;;;;7372363;19;20732;-60
2024/04/23 07:14:35;;;;;;;9.60;8.15;;;9.10;1.00;;;;;;7363800;19;20026;-61
2024/04/23 07:17:02;;;;;;;9.80;8.52;;;9.50;1.00;;;;;;7371166;19;20021;-61
2024/04/23 07:19:28;;;;;;;10.07;7.88;;;9.80;1.00;;;;;;7374964;19;20018;-64
2024/04/23 07:21:54;;;;;;;10.65;8.98;;;10.10;1.00;;;;;;7372334;19;20082;-63
2024/04/23 07:24:20;;;;;;;13.52;9.23;;;10.40;99.90;;;;;;7373846;19;20010;-63
2024/04/23 07:26:51;;;;;;;9.27;8.38;;;10.20;99.90;;;;;;7375459;19;20014;-63
2024/04/23 07:29:17;;;;;;;9.18;8.27;;;10.30;99.90;;;;;;7378410;19;20580;-62
2024/04/23 07:31:44;;;;;;;9.52;8.52;;;10.50;99.90;;;;;;7379262;19;20474;-61
2024/04/23 07:34:10;;;;;;;9.02;8.13;;;10.30;99.90;;;;;;7381402;19;20019;-63
2024/04/23 07:36:36;;;;;;;8.93;8.02;;;10.50;99.90;;;;;;7375636;19;20781;-64
2024/04/23 07:39:03;;;;;;;9.05;7.65;;;10.70;99.90;;;;;;7372989;19;20022;-64
2024/04/23 07:41:29;;;;;;;8.85;7.28;;;10.90;99.90;;;;;;7373666;19;20496;-64
2024/04/23 07:43:56;;;;;;;8.68;7.57;;;11.20;99.90;;;;;;7376176;19;20048;-64
2024/04/23 07:46:22;;;;;;;8.93;7.45;;;11.30;99.90;;;;;;7372829;19;20081;-62
2024/04/23 07:48:48;;;;;;;8.63;6.57;;;11.30;99.90;;;;;;7377006;19;20029;-63
2024/04/23 07:51:14;;;;;;;9.30;7.28;;;11.60;99.90;;;;;;7374822;19;20011;-65
2024/04/23 07:53:40;;;;;;;8.88;6.70;;;11.60;99.90;;;;;;7375392;19;20022;-61
2024/04/23 07:56:07;;;;;;;8.20;6.88;;;11.80;99.90;;;;;;7372226;19;20114;-62
2024/04/23 07:58:33;;;;;;;9.43;6.93;;;11.70;97.00;;;;;;7376266;19;20022;-62
2024/04/23 08:00:59;;;;;;;9.88;7.03;;;11.80;90.20;;;;;;7374215;19;20018;-62
2024/04/23 08:03:25;;;;;;;8.20;7.40;;;12.00;48.40;;;;;;7373718;19;20022;-63
2024/04/23 08:05:55;;;;;;;10.38;7.10;;;12.20;89.40;;;;;;7372295;19;20056;-62
2024/04/23 08:08:21;;;;;;;7.50;6.38;;;12.40;22.90;;;;;;7376454;19;20010;-62
2024/04/23 08:10:48;;;;;;;6.82;6.10;;;12.20;27.40;;;;;;7374439;19;20013;-62
2024/04/23 08:13:14;;;;;;;7.53;6.03;;;12.30;28.30;;;;;;7373211;19;20026;-61
2024/04/23 08:15:40;;;;;;;6.97;6.28;;;12.20;1.00;;;;;;7374773;19;20050;-61
2024/04/23 08:18:07;;;;;;;7.13;5.75;;;12.90;24.60;;;;;;7375975;19;20046;-62
2024/04/23 08:20:33;;;;;;;5.47;4.50;;;13.20;17.10;;;;;;7374574;19;20046;-62
2024/04/23 08:22:59;;;;;;;6.25;5.22;;;13.40;1.00;;;;;;7369988;19;20797;-61
2024/04/23 08:25:25;;;;;;;8.25;5.90;;;13.30;1.00;;;;;;7373815;19;20026;-62
2024/04/23 08:27:51;;;;;;;8.30;5.18;;;13.30;1.00;;;;;;7373379;19;20764;-62
2024/04/23 08:30:20;;;;;;;7.30;5.18;;;13.60;1.00;;;;;;7374460;19;20019;-62
2024/04/23 08:32:46;;;;;;;6.22;4.75;;;13.00;1.00;;;;;;7375268;19;20036;-61
2024/04/23 08:35:13;;;;;;;5.07;4.13;;;13.30;1.00;;;;;;7373349;19;20026;-61
2024/04/23 08:37:40;;;;;;;3.63;3.10;;;13.80;1.00;;;;;;7375589;19;20086;-64
2024/04/23 08:40:10;;;;;;;5.80;3.95;;;14.10;1.00;;;;;;7381339;19;20703;-61
2024/04/23 08:42:39;;;;;;;4.93;3.53;;;14.10;1.00;;;;;;7377915;19;20014;-61
2024/04/23 08:45:10;;;;;;;4.43;3.28;;;14.00;1.00;;;;;;7382347;19;20015;-62
2024/04/23 08:47:37;;;;;;;5.15;3.88;;;14.30;1.00;;;;;;7380772;19;20022;-61
2024/04/23 08:50:05;;;;;;;6.28;4.10;;;14.20;1.00;;;;;;7381397;19;20022;-61
2024/04/23 08:52:32;;;;;;;5.97;4.45;;;14.50;1.00;;;;;;7377317;19;20086;-61
2024/04/23 08:54:59;;;;;;;6.47;4.55;;;14.80;1.00;;;;;;7378842;19;20042;-61
2024/04/23 08:57:26;;;;;;;5.95;3.88;;;15.20;1.00;;;;;;7377559;19;20022;-62
2024/04/23 08:59:53;;;;;;;5.03;3.50;;;15.10;1.00;;;;;;7381443;19;20859;-61
2024/04/23 09:02:25;;;;;;;5.70;4.00;;;15.10;1.00;;;;;;7378242;19;20033;-61
2024/04/23 09:04:56;;;;;;;4.88;3.50;;;15.60;1.00;;;;;;7376395;19;20815;-61
2024/04/23 09:07:23;;;;;;;3.65;3.20;;;15.90;1.00;;;;;;7379032;19;20379;-61
2024/04/23 09:09:50;;;;;;;4.63;3.38;;;16.50;1.00;;;;;;7377583;19;20086;-62
2024/04/23 09:12:16;;;;;;;4.18;2.95;;;16.50;1.00;;;;;;7378770;19;20018;-63
2024/04/23 09:14:44;;;;;;;4.72;2.90;;;16.40;1.00;;;;;;7382810;19;20026;-63
2024/04/23 09:17:11;;;;;;;4.28;3.08;;;17.00;1.00;;;;;;7378133;19;20025;-62
2024/04/23 09:19:38;;;;;;;3.97;3.03;;;17.20;1.00;;;;;;7381885;19;20078;-63
2024/04/23 09:22:04;;;;;;;6.22;2.67;;;16.60;1.00;;;;;;7376692;19;20015;-62
2024/04/23 09:24:31;;;;;;;5.15;3.17;;;16.00;1.00;;;;;;7378450;19;20063;-62
2024/04/23 09:26:58;;;;;;;4.30;3.15;;;16.20;1.00;;;;;;7378920;19;20014;-62
2024/04/23 09:29:31;;;;;;;4.75;3.70;;;16.50;1.00;;;;;;7380020;19;20017;-62
2024/04/23 09:31:58;;;;;;;4.80;3.58;;;16.30;1.00;;;;;;7379467;19;20019;-61
2024/04/23 09:34:26;;;;;;;4.10;3.08;;;15.60;1.00;;;;;;7377432;19;20362;-61
2024/04/23 09:36:52;;;;;;;4.88;3.53;;;15.80;1.00;;;;;;7377913;19;20054;-61
2024/04/23 09:39:18;;;;;;;5.70;3.45;;;16.00;1.00;;;;;;7379775;19;20010;-61
2024/04/23 09:42:03;;;;;;;4.63;3.70;;;16.00;1.00;;;;;;7379774;19;20031;-63
2024/04/23 09:44:30;;;;;;;5.80;3.53;;;16.50;1.00;;;;;;7376997;19;20258;-63
2024/04/23 09:46:56;;;;;;;6.93;3.60;;;16.50;1.00;;;;;;7378030;19;20010;-63
2024/04/23 09:49:23;;;;;;;7.47;3.13;;;16.40;1.00;;;;;;7374257;19;20078;-63
2024/04/23 09:51:51;;;;;;;5.43;3.50;;;16.10;1.00;;;;;;7377213;19;20022;-63
2024/04/23 09:54:20;;;;;;;3.85;2.88;;;16.70;1.00;;;;;;7377680;19;20014;-63
2024/04/23 09:56:47;;;;;;;3.97;2.80;;;16.90;1.00;;;;;;7378894;19;20029;-63
2024/04/23 09:59:15;;;;;;;3.97;3.22;;;16.80;1.00;;;;;;7378958;19;20023;-63
2024/04/23 10:01:44;;;;;;;4.53;3.10;;;17.10;1.00;;;;;;7377333;19;20015;-63
2024/04/23 10:04:12;;;;;;;4.20;2.75;;;17.20;1.00;;;;;;7376722;19;20022;-63
2024/04/23 10:06:45;;;;;;;4.55;3.45;;;16.40;1.00;;;;;;7378774;19;20094;-63
2024/04/23 10:09:21;;;;;;;4.22;3.28;;;16.50;1.00;;;;;;7379334;19;20014;-61
2024/04/23 10:12:05;;;;;;;4.35;3.35;;;16.50;1.00;;;;;;7377629;19;20019;-61
2024/04/23 10:15:03;;;;;;;6.05;3.95;;;15.80;1.00;;;;;;7375313;19;20019;-61
2024/04/23 10:17:34;;;;;;;8.65;4.07;;;15.20;1.00;;;;;;7375294;19;20015;-60
2024/04/23 10:20:01;;;;;;;6.38;3.75;;;14.30;1.00;;;;;;7373687;19;20539;-60
2024/04/23 10:22:30;;;;;;;4.88;3.72;;;13.70;1.00;;;;;;7377788;19;20018;-60
2024/04/23 10:24:57;;;;;;;4.70;3.65;;;13.60;1.00;;;;;;7374050;19;20021;-60
2024/04/23 10:27:24;;;;;;;5.57;4.03;;;13.90;1.00;;;;;;7376405;19;20043;-63
2024/04/23 10:29:53;;;;;;;7.60;3.95;;;13.90;1.00;;;;;;7379387;19;20006;-63
2024/04/23 10:32:20;;;;;;;5.43;3.90;;;14.40;1.00;;;;;;7378249;19;20028;-63
2024/04/23 10:34:49;;;;;;;4.35;3.53;;;15.10;1.00;;;;;;7377811;19;20441;-63
2024/04/23 10:37:16;;;;;;;5.57;3.55;;;15.40;1.00;;;;;;7372906;19;20034;-64
2024/04/23 10:39:45;;;;;;;4.60;3.20;;;16.00;1.00;;;;;;7381003;19;20014;-67
2024/04/23 10:42:14;;;;;;;4.82;3.53;;;16.00;1.00;;;;;;7375016;19;20499;-64
2024/04/23 10:44:44;;;;;;;5.53;3.88;;;15.60;1.00;;;;;;7377747;19;20041;-63
2024/04/23 10:47:10;;;;;;;4.78;3.60;;;15.40;1.00;;;;;;7375185;19;20037;-63
2024/04/23 10:49:37;;;;;;;5.53;3.22;;;16.20;1.00;;;;;;7379054;19;20018;-64
2024/04/23 10:52:04;;;;;;;5.53;3.20;;;17.10;1.00;;;;;;7377719;19;20022;-64
2024/04/23 10:54:32;;;;;;;5.50;3.45;;;18.00;1.00;;;;;;7377344;19;20018;-63
2024/04/23 10:57:00;;;;;;;4.38;2.92;;;17.50;1.00;;;;;;7378080;19;20014;-63
2024/04/23 10:59:42;;;;;;;3.95;3.00;;;17.80;1.00;;;;;;7378142;19;20450;-63
2024/04/23 11:02:12;;;;;;;5.75;3.28;;;17.60;1.00;;;;;;7377335;19;20011;-64
2024/04/23 11:04:45;;;;;;;3.53;2.60;;;17.30;1.00;;;;;;7376810;19;20023;-63
2024/04/23 11:07:22;;;;;;;4.22;2.97;;;17.00;1.00;;;;;;7377148;19;20029;-63
2024/04/23 11:09:48;;;;;;;4.82;3.25;;;15.80;1.00;;;;;;7377789;19;20010;-63
2024/04/23 11:12:25;;;;;;;5.18;3.17;;;15.20;1.00;;;;;;7375038;19;20054;-63
2024/04/23 11:14:52;;;;;;;5.72;3.28;;;15.00;1.00;;;;;;7376647;19;20078;-61
2024/04/23 11:17:19;;;;;;;4.45;3.00;;;14.60;1.00;;;;;;7379008;19;20030;-63
2024/04/23 11:19:47;;;;;;;4.10;3.15;;;15.50;1.00;;;;;;7379659;19;20094;-63
2024/04/23 11:22:16;;;;;;;5.32;3.40;;;16.10;1.00;;;;;;7374322;19;20015;-61
2024/04/23 11:24:48;;;;;;;3.90;2.92;;;16.60;1.00;;;;;;7373040;19;20038;-59
2024/04/23 11:27:15;;;;;;;4.15;2.88;;;16.70;1.00;;;;;;7374462;19;20019;-61
2024/04/23 11:29:42;;;;;;;4.25;2.95;;;17.50;1.00;;;;;;7373105;19;20025;-61
2024/04/23 11:32:10;;;;;;;3.85;2.88;;;17.80;1.00;;;;;;7376990;19;20018;-61
2024/04/23 11:34:38;;;;;;;3.83;2.90;;;17.60;1.00;;;;;;7372974;19;20169;-61
2024/04/23 11:37:04;;;;;;;4.65;2.90;;;17.70;1.00;;;;;;7374477;19;20018;-65
2024/04/23 11:39:32;;;;;;;4.13;2.58;;;17.40;1.00;;;;;;7372959;19;20014;-61
2024/04/23 11:41:59;;;;;;;3.33;2.67;;;17.10;1.00;;;;;;7372864;19;20371;-61
2024/04/23 11:44:29;;;;;;;3.95;2.63;;;16.90;1.00;;;;;;7372097;19;20042;-61
2024/04/23 11:46:57;;;;;;;3.30;2.40;;;16.80;1.00;;;;;;7374890;19;20017;-61
2024/04/23 11:49:28;;;;;;;4.18;3.10;;;17.10;1.00;;;;;;7375110;19;20014;-61
2024/04/23 11:51:54;;;;;;;4.10;2.72;;;17.40;1.00;;;;;;7375681;19;20044;-61
2024/04/23 11:54:21;;;;;;;3.10;2.33;;;17.90;1.00;;;;;;7372375;19;20369;-61
2024/04/23 11:56:49;;;;;;;4.70;2.40;;;17.70;1.00;;;;;;7374416;19;20014;-60
2024/04/23 11:59:18;;;;;;;3.50;2.47;;;18.10;1.00;;;;;;7373214;19;20014;-61
2024/04/23 12:01:45;;;;;;;3.50;2.35;;;18.00;1.00;;;;;;7375720;19;20011;-63
2024/04/23 12:04:12;;;;;;;3.30;2.40;;;18.20;1.00;;;;;;7373403;19;20026;-61
2024/04/23 12:06:44;;;;;;;3.15;2.75;;;17.70;1.00;;;;;;7374943;19;20026;-63
2024/04/23 12:09:12;;;;;;;3.65;2.53;;;17.80;1.00;;;;;;7370183;19;20086;-63
2024/04/23 12:11:39;;;;;;;5.03;2.15;;;16.90;1.00;;;;;;7372852;19;20019;-63
2024/04/23 12:14:11;;;;;;;5.10;3.08;;;16.90;1.00;;;;;;7379600;19;20029;-61
2024/04/23 12:16:42;;;;;;;3.90;2.45;;;16.70;1.00;;;;;;7381312;19;20114;-61
2024/04/23 12:19:09;;;;;;;3.37;2.27;;;17.10;1.00;;;;;;7379632;19;20057;-60
2024/04/23 12:21:36;;;;;;;4.80;3.00;;;17.00;1.00;;;;;;7381663;19;20015;-61
2024/04/23 12:24:02;;;;;;;6.15;2.92;;;16.60;1.00;;;;;;7379810;19;20477;-63
2024/04/23 12:26:31;;;;;;;3.72;2.65;;;16.40;1.00;;;;;;7380341;19;20010;-62
2024/04/23 12:28:57;;;;;;;4.05;2.80;;;16.70;1.00;;;;;;7383676;19;20018;-62
2024/04/23 12:31:24;;;;;;;3.63;3.03;;;16.80;1.00;;;;;;7382081;19;20010;-61
2024/04/23 12:33:58;;;;;;;4.40;2.85;;;17.10;1.00;;;;;;7380780;19;20022;-60
2024/04/23 12:36:24;;;;;;;4.80;2.97;;;16.90;1.00;;;;;;7377982;19;20094;-60
2024/04/23 12:38:51;;;;;;;3.55;2.70;;;16.40;1.00;;;;;;7382134;19;20841;-60
2024/04/23 12:41:19;;;;;;;3.90;2.90;;;16.60;1.00;;;;;;7377595;19;20074;-60
2024/04/23 12:43:47;;;;;;;4.30;3.10;;;16.40;1.00;;;;;;7378182;19;20019;-59
2024/04/23 12:46:18;;;;;;;3.65;2.85;;;17.50;1.00;;;;;;7377049;19;20070;-63
2024/04/23 12:48:46;;;;;;;5.25;3.08;;;18.40;1.00;;;;;;7376752;19;20015;-63
2024/04/23 12:51:13;;;;;;;4.15;3.08;;;17.40;1.00;;;;;;7381523;19;20022;-63
2024/04/23 12:53:39;;;;;;;4.82;3.30;;;18.30;1.00;;;;;;7383454;19;20619;-63
2024/04/23 12:56:05;;;;;;;3.90;2.65;;;17.90;1.00;;;;;;7378078;19;20026;-63
2024/04/23 12:58:36;;;;;;;4.07;2.53;;;18.40;1.00;;;;;;7382593;19;20807;-63
2024/04/23 13:01:02;;;;;;;5.20;3.33;;;17.80;1.00;;;;;;7380261;19;20785;-63
2024/04/23 13:03:28;;;;;;;4.45;3.40;;;17.50;1.00;;;;;;7382293;19;20022;-63
2024/04/23 13:05:57;;;;;;;6.15;4.03;;;17.10;1.00;;;;;;7379610;19;20018;-64
2024/04/23 13:08:23;;;;;;;4.95;3.38;;;16.50;1.00;;;;;;7379443;19;20021;-63